sensor_id;sensor_type;location;lat;lon;timestamp;P1;durP1;ratioP1;P2;durP2;ratioP2
64936;SDS011;51452;47.698;19.050;2023-03-01T00:01:21;13.70;;;7.53;;
64936;SDS011;51452;47.698;19.050;2023-03-01T00:03:48;14.07;;;7.50;;
64936;SDS011;51452;47.698;19.050;2023-03-01T00:06:14;14.83;;;8.33;;
64936;SDS011;51452;47.698;19.050;2023-03-01T00:08:40;11.27;;;6.67;;
64936;SDS011;51452;47.698;19.050;2023-03-01T00:11:17;12.17;;;6.97;;
64936;SDS011;51452;47.698;19.050;2023-03-01T00:13:54;13.87;;;6.90;;
64936;SDS011;51452;47.698;19.050;2023-03-01T00:16:26;10.33;;;5.80;;
64936;SDS011;51452;47.698;19.050;2023-03-01T00:18:56;10.87;;;6.40;;
64936;SDS011;51452;47.698;19.050;2023-03-01T00:21:23;10.13;;;5.33;;
64936;SDS011;51452;47.698;19.050;2023-03-01T00:23:48;10.83;;;6.13;;
64936;SDS011;51452;47.698;19.050;2023-03-01T00:26:15;10.47;;;5.90;;
64936;SDS011;51452;47.698;19.050;2023-03-01T00:28:42;9.60;;;5.67;;
64936;SDS011;51452;47.698;19.050;2023-03-01T00:31:09;9.30;;;5.80;;
64936;SDS011;51452;47.698;19.050;2023-03-01T00:33:39;10.73;;;6.10;;
64936;SDS011;51452;47.698;19.050;2023-03-01T00:36:06;11.10;;;6.20;;
64936;SDS011;51452;47.698;19.050;2023-03-01T00:38:35;10.23;;;5.73;;
64936;SDS011;51452;47.698;19.050;2023-03-01T00:41:08;11.13;;;6.00;;
64936;SDS011;51452;47.698;19.050;2023-03-01T00:43:35;10.73;;;6.33;;
64936;SDS011;51452;47.698;19.050;2023-03-01T00:46:05;9.43;;;5.77;;
64936;SDS011;51452;47.698;19.050;2023-03-01T00:48:32;9.77;;;5.77;;
64936;SDS011;51452;47.698;19.050;2023-03-01T00:51:08;11.20;;;5.90;;
64936;SDS011;51452;47.698;19.050;2023-03-01T00:53:41;11.90;;;6.00;;
64936;SDS011;51452;47.698;19.050;2023-03-01T00:56:07;10.23;;;6.00;;
64936;SDS011;51452;47.698;19.050;2023-03-01T00:58:34;11.17;;;6.03;;
64936;SDS011;51452;47.698;19.050;2023-03-01T01:01:00;10.07;;;5.90;;
64936;SDS011;51452;47.698;19.050;2023-03-01T01:03:26;9.83;;;5.60;;
64936;SDS011;51452;47.698;19.050;2023-03-01T01:05:52;12.90;;;6.60;;
64936;SDS011;51452;47.698;19.050;2023-03-01T01:08:18;10.27;;;5.93;;
64936;SDS011;51452;47.698;19.050;2023-03-01T01:10:45;10.57;;;5.73;;
64936;SDS011;51452;47.698;19.050;2023-03-01T01:13:12;12.57;;;6.17;;
64936;SDS011;51452;47.698;19.050;2023-03-01T01:15:38;10.30;;;5.60;;
64936;SDS011;51452;47.698;19.050;2023-03-01T01:18:04;13.07;;;5.90;;
64936;SDS011;51452;47.698;19.050;2023-03-01T01:20:30;10.83;;;5.97;;
64936;SDS011;51452;47.698;19.050;2023-03-01T01:22:55;13.50;;;6.37;;
64936;SDS011;51452;47.698;19.050;2023-03-01T01:25:21;9.97;;;5.97;;
64936;SDS011;51452;47.698;19.050;2023-03-01T01:27:46;10.97;;;5.63;;
64936;SDS011;51452;47.698;19.050;2023-03-01T01:30:12;14.00;;;6.70;;
64936;SDS011;51452;47.698;19.050;2023-03-01T01:32:38;11.00;;;6.33;;
64936;SDS011;51452;47.698;19.050;2023-03-01T01:35:04;11.10;;;6.13;;
64936;SDS011;51452;47.698;19.050;2023-03-01T01:37:29;11.83;;;6.07;;
64936;SDS011;51452;47.698;19.050;2023-03-01T01:39:58;11.57;;;6.00;;
64936;SDS011;51452;47.698;19.050;2023-03-01T01:42:24;13.83;;;6.67;;
64936;SDS011;51452;47.698;19.050;2023-03-01T01:45:24;11.63;;;6.20;;
64936;SDS011;51452;47.698;19.050;2023-03-01T01:47:58;13.20;;;6.00;;
64936;SDS011;51452;47.698;19.050;2023-03-01T01:50:29;11.20;;;6.20;;
64936;SDS011;51452;47.698;19.050;2023-03-01T01:53:03;11.30;;;6.47;;
64936;SDS011;51452;47.698;19.050;2023-03-01T01:55:39;10.60;;;5.63;;
64936;SDS011;51452;47.698;19.050;2023-03-01T01:58:07;12.83;;;6.83;;
64936;SDS011;51452;47.698;19.050;2023-03-01T02:00:35;10.93;;;6.17;;
64936;SDS011;51452;47.698;19.050;2023-03-01T02:03:13;12.80;;;6.70;;
64936;SDS011;51452;47.698;19.050;2023-03-01T02:05:48;11.60;;;5.77;;
64936;SDS011;51452;47.698;19.050;2023-03-01T02:08:19;11.80;;;6.10;;
64936;SDS011;51452;47.698;19.050;2023-03-01T02:10:45;10.77;;;5.60;;
64936;SDS011;51452;47.698;19.050;2023-03-01T02:13:13;13.93;;;5.77;;
64936;SDS011;51452;47.698;19.050;2023-03-01T02:15:39;11.00;;;5.97;;
64936;SDS011;51452;47.698;19.050;2023-03-01T02:18:07;10.77;;;5.97;;
64936;SDS011;51452;47.698;19.050;2023-03-01T02:23:29;12.73;;;6.10;;
64936;SDS011;51452;47.698;19.050;2023-03-01T02:25:57;11.73;;;6.10;;
64936;SDS011;51452;47.698;19.050;2023-03-01T02:28:33;12.90;;;6.40;;
64936;SDS011;51452;47.698;19.050;2023-03-01T02:31:04;12.00;;;6.33;;
64936;SDS011;51452;47.698;19.050;2023-03-01T02:33:50;11.87;;;6.00;;
64936;SDS011;51452;47.698;19.050;2023-03-01T02:36:20;12.73;;;6.23;;
64936;SDS011;51452;47.698;19.050;2023-03-01T02:38:49;10.20;;;5.80;;
64936;SDS011;51452;47.698;19.050;2023-03-01T02:41:17;13.10;;;6.43;;
64936;SDS011;51452;47.698;19.050;2023-03-01T02:43:45;8.80;;;5.63;;
64936;SDS011;51452;47.698;19.050;2023-03-01T02:46:18;11.90;;;6.30;;
64936;SDS011;51452;47.698;19.050;2023-03-01T02:48:49;11.65;;;5.85;;
64936;SDS011;51452;47.698;19.050;2023-03-01T02:56:33;10.77;;;5.85;;
64936;SDS011;51452;47.698;19.050;2023-03-01T02:58:59;11.50;;;6.10;;
64936;SDS011;51452;47.698;19.050;2023-03-01T03:01:25;12.03;;;6.10;;
64936;SDS011;51452;47.698;19.050;2023-03-01T03:04:01;11.80;;;5.93;;
64936;SDS011;51452;47.698;19.050;2023-03-01T03:06:31;9.53;;;5.50;;
64936;SDS011;51452;47.698;19.050;2023-03-01T03:08:57;11.57;;;6.13;;
64936;SDS011;51452;47.698;19.050;2023-03-01T03:11:22;13.67;;;6.20;;
64936;SDS011;51452;47.698;19.050;2023-03-01T03:13:48;10.63;;;5.80;;
64936;SDS011;51452;47.698;19.050;2023-03-01T03:16:14;10.53;;;5.80;;
64936;SDS011;51452;47.698;19.050;2023-03-01T03:18:40;13.20;;;6.63;;
64936;SDS011;51452;47.698;19.050;2023-03-01T03:21:09;11.77;;;5.90;;
64936;SDS011;51452;47.698;19.050;2023-03-01T03:23:36;10.27;;;5.90;;
64936;SDS011;51452;47.698;19.050;2023-03-01T03:26:02;10.93;;;6.17;;
64936;SDS011;51452;47.698;19.050;2023-03-01T03:28:29;10.83;;;6.10;;
64936;SDS011;51452;47.698;19.050;2023-03-01T03:30:55;11.07;;;5.40;;
64936;SDS011;51452;47.698;19.050;2023-03-01T03:33:21;11.53;;;5.83;;
64936;SDS011;51452;47.698;19.050;2023-03-01T03:35:48;9.80;;;5.43;;
64936;SDS011;51452;47.698;19.050;2023-03-01T03:38:14;11.07;;;5.87;;
64936;SDS011;51452;47.698;19.050;2023-03-01T03:40:45;11.07;;;5.63;;
64936;SDS011;51452;47.698;19.050;2023-03-01T03:43:14;9.50;;;5.03;;
64936;SDS011;51452;47.698;19.050;2023-03-01T03:45:45;11.43;;;5.73;;
64936;SDS011;51452;47.698;19.050;2023-03-01T03:48:11;11.67;;;6.43;;
64936;SDS011;51452;47.698;19.050;2023-03-01T03:50:38;11.23;;;5.40;;
64936;SDS011;51452;47.698;19.050;2023-03-01T03:53:09;10.20;;;5.73;;
64936;SDS011;51452;47.698;19.050;2023-03-01T03:55:36;10.17;;;5.77;;
64936;SDS011;51452;47.698;19.050;2023-03-01T03:58:04;10.97;;;5.80;;
64936;SDS011;51452;47.698;19.050;2023-03-01T04:00:34;12.27;;;6.17;;
64936;SDS011;51452;47.698;19.050;2023-03-01T04:03:04;12.17;;;5.87;;
64936;SDS011;51452;47.698;19.050;2023-03-01T04:05:30;10.50;;;6.23;;
64936;SDS011;51452;47.698;19.050;2023-03-01T04:07:56;13.13;;;6.50;;
64936;SDS011;51452;47.698;19.050;2023-03-01T04:10:29;10.60;;;6.00;;
64936;SDS011;51452;47.698;19.050;2023-03-01T04:12:56;12.27;;;5.43;;
64936;SDS011;51452;47.698;19.050;2023-03-01T04:15:23;9.57;;;5.67;;
64936;SDS011;51452;47.698;19.050;2023-03-01T04:17:50;10.17;;;5.93;;
64936;SDS011;51452;47.698;19.050;2023-03-01T04:20:20;9.70;;;5.33;;
64936;SDS011;51452;47.698;19.050;2023-03-01T04:22:57;9.90;;;5.63;;
64936;SDS011;51452;47.698;19.050;2023-03-01T04:25:25;9.83;;;5.67;;
64936;SDS011;51452;47.698;19.050;2023-03-01T04:27:50;9.43;;;5.63;;
64936;SDS011;51452;47.698;19.050;2023-03-01T04:30:16;11.37;;;6.13;;
64936;SDS011;51452;47.698;19.050;2023-03-01T04:32:41;9.30;;;5.33;;
64936;SDS011;51452;47.698;19.050;2023-03-01T04:35:07;11.57;;;5.67;;
64936;SDS011;51452;47.698;19.050;2023-03-01T04:37:33;10.27;;;5.90;;
64936;SDS011;51452;47.698;19.050;2023-03-01T04:40:00;11.47;;;5.93;;
64936;SDS011;51452;47.698;19.050;2023-03-01T04:42:26;10.07;;;5.57;;
64936;SDS011;51452;47.698;19.050;2023-03-01T04:44:51;11.20;;;5.93;;
64936;SDS011;51452;47.698;19.050;2023-03-01T04:47:17;11.80;;;6.00;;
64936;SDS011;51452;47.698;19.050;2023-03-01T04:49:42;10.80;;;6.20;;
64936;SDS011;51452;47.698;19.050;2023-03-01T04:52:08;14.60;;;6.83;;
64936;SDS011;51452;47.698;19.050;2023-03-01T04:54:34;12.23;;;6.67;;
64936;SDS011;51452;47.698;19.050;2023-03-01T04:57:01;13.73;;;6.70;;
64936;SDS011;51452;47.698;19.050;2023-03-01T04:59:28;11.73;;;6.37;;
64936;SDS011;51452;47.698;19.050;2023-03-01T05:01:55;16.10;;;6.77;;
64936;SDS011;51452;47.698;19.050;2023-03-01T05:04:21;12.77;;;7.03;;
64936;SDS011;51452;47.698;19.050;2023-03-01T05:06:50;13.33;;;7.40;;
64936;SDS011;51452;47.698;19.050;2023-03-01T05:09:16;11.67;;;6.30;;
64936;SDS011;51452;47.698;19.050;2023-03-01T05:11:41;11.10;;;6.27;;
64936;SDS011;51452;47.698;19.050;2023-03-01T05:14:07;12.17;;;6.30;;
64936;SDS011;51452;47.698;19.050;2023-03-01T05:16:34;12.37;;;6.83;;
64936;SDS011;51452;47.698;19.050;2023-03-01T05:19:01;11.50;;;6.73;;
64936;SDS011;51452;47.698;19.050;2023-03-01T05:21:36;11.02;;;6.28;;
64936;SDS011;51452;47.698;19.050;2023-03-01T05:24:22;10.23;;;5.53;;
64936;SDS011;51452;47.698;19.050;2023-03-01T05:26:48;10.40;;;5.57;;
64936;SDS011;51452;47.698;19.050;2023-03-01T05:29:14;11.57;;;6.53;;
64936;SDS011;51452;47.698;19.050;2023-03-01T05:31:39;13.20;;;6.40;;
64936;SDS011;51452;47.698;19.050;2023-03-01T05:34:05;10.33;;;5.97;;
64936;SDS011;51452;47.698;19.050;2023-03-01T05:36:31;11.73;;;6.57;;
64936;SDS011;51452;47.698;19.050;2023-03-01T05:38:56;11.50;;;6.20;;
64936;SDS011;51452;47.698;19.050;2023-03-01T05:41:22;9.67;;;5.70;;
64936;SDS011;51452;47.698;19.050;2023-03-01T05:43:47;10.67;;;6.37;;
64936;SDS011;51452;47.698;19.050;2023-03-01T05:46:13;12.17;;;7.13;;
64936;SDS011;51452;47.698;19.050;2023-03-01T05:48:40;13.13;;;6.90;;
64936;SDS011;51452;47.698;19.050;2023-03-01T05:51:05;12.53;;;6.63;;
64936;SDS011;51452;47.698;19.050;2023-03-01T05:53:31;12.20;;;6.40;;
64936;SDS011;51452;47.698;19.050;2023-03-01T05:55:56;12.20;;;6.93;;
64936;SDS011;51452;47.698;19.050;2023-03-01T05:58:22;11.60;;;6.87;;
64936;SDS011;51452;47.698;19.050;2023-03-01T06:00:48;13.20;;;6.57;;
64936;SDS011;51452;47.698;19.050;2023-03-01T06:03:15;17.07;;;7.23;;
64936;SDS011;51452;47.698;19.050;2023-03-01T06:05:41;13.67;;;6.53;;
64936;SDS011;51452;47.698;19.050;2023-03-01T06:08:10;12.60;;;6.33;;
64936;SDS011;51452;47.698;19.050;2023-03-01T06:10:36;12.80;;;7.10;;
64936;SDS011;51452;47.698;19.050;2023-03-01T06:13:02;18.27;;;6.60;;
64936;SDS011;51452;47.698;19.050;2023-03-01T06:15:28;10.90;;;6.20;;
64936;SDS011;51452;47.698;19.050;2023-03-01T06:17:53;15.20;;;6.93;;
64936;SDS011;51452;47.698;19.050;2023-03-01T06:20:23;13.03;;;6.90;;
64936;SDS011;51452;47.698;19.050;2023-03-01T06:22:49;11.97;;;6.83;;
64936;SDS011;51452;47.698;19.050;2023-03-01T06:25:16;12.53;;;6.33;;
64936;SDS011;51452;47.698;19.050;2023-03-01T06:27:45;11.23;;;5.97;;
64936;SDS011;51452;47.698;19.050;2023-03-01T06:30:11;9.17;;;5.53;;
64936;SDS011;51452;47.698;19.050;2023-03-01T06:32:39;9.60;;;5.67;;
64936;SDS011;51452;47.698;19.050;2023-03-01T06:35:06;14.13;;;5.37;;
64936;SDS011;51452;47.698;19.050;2023-03-01T06:37:32;11.03;;;5.90;;
64936;SDS011;51452;47.698;19.050;2023-03-01T06:39:58;11.17;;;6.50;;
64936;SDS011;51452;47.698;19.050;2023-03-01T06:42:24;13.50;;;7.07;;
64936;SDS011;51452;47.698;19.050;2023-03-01T06:44:49;13.50;;;7.30;;
64936;SDS011;51452;47.698;19.050;2023-03-01T06:47:14;15.20;;;8.13;;
64936;SDS011;51452;47.698;19.050;2023-03-01T06:49:40;13.43;;;7.17;;
64936;SDS011;51452;47.698;19.050;2023-03-01T06:52:06;16.97;;;7.53;;
64936;SDS011;51452;47.698;19.050;2023-03-01T06:54:31;16.10;;;7.30;;
64936;SDS011;51452;47.698;19.050;2023-03-01T06:56:57;13.37;;;6.80;;
64936;SDS011;51452;47.698;19.050;2023-03-01T06:59:22;13.33;;;7.70;;
64936;SDS011;51452;47.698;19.050;2023-03-01T07:01:47;12.50;;;6.83;;
64936;SDS011;51452;47.698;19.050;2023-03-01T07:04:13;13.93;;;6.93;;
64936;SDS011;51452;47.698;19.050;2023-03-01T07:06:39;13.17;;;7.13;;
64936;SDS011;51452;47.698;19.050;2023-03-01T07:09:04;12.70;;;6.80;;
64936;SDS011;51452;47.698;19.050;2023-03-01T07:11:30;13.87;;;6.73;;
64936;SDS011;51452;47.698;19.050;2023-03-01T07:13:55;15.33;;;7.37;;
64936;SDS011;51452;47.698;19.050;2023-03-01T07:16:21;10.03;;;6.43;;
64936;SDS011;51452;47.698;19.050;2023-03-01T07:18:47;12.87;;;7.33;;
64936;SDS011;51452;47.698;19.050;2023-03-01T07:21:13;14.33;;;6.57;;
64936;SDS011;51452;47.698;19.050;2023-03-01T07:23:39;12.07;;;6.60;;
64936;SDS011;51452;47.698;19.050;2023-03-01T07:26:05;13.33;;;7.53;;
64936;SDS011;51452;47.698;19.050;2023-03-01T07:28:31;15.70;;;8.40;;
64936;SDS011;51452;47.698;19.050;2023-03-01T07:31:01;13.70;;;7.37;;
64936;SDS011;51452;47.698;19.050;2023-03-01T07:33:27;16.30;;;8.20;;
64936;SDS011;51452;47.698;19.050;2023-03-01T07:35:56;13.43;;;7.43;;
64936;SDS011;51452;47.698;19.050;2023-03-01T07:38:23;13.17;;;7.20;;
64936;SDS011;51452;47.698;19.050;2023-03-01T07:40:48;14.57;;;6.70;;
64936;SDS011;51452;47.698;19.050;2023-03-01T07:43:13;14.20;;;7.27;;
64936;SDS011;51452;47.698;19.050;2023-03-01T07:45:39;13.27;;;6.80;;
64936;SDS011;51452;47.698;19.050;2023-03-01T07:48:04;13.17;;;7.50;;
64936;SDS011;51452;47.698;19.050;2023-03-01T07:50:30;15.53;;;8.13;;
64936;SDS011;51452;47.698;19.050;2023-03-01T07:52:55;13.50;;;7.43;;
64936;SDS011;51452;47.698;19.050;2023-03-01T07:55:20;11.53;;;7.20;;
64936;SDS011;51452;47.698;19.050;2023-03-01T07:57:46;17.07;;;7.97;;
64936;SDS011;51452;47.698;19.050;2023-03-01T08:00:11;16.00;;;6.60;;
64936;SDS011;51452;47.698;19.050;2023-03-01T08:02:37;11.60;;;6.20;;
64936;SDS011;51452;47.698;19.050;2023-03-01T08:05:03;13.50;;;6.70;;
64936;SDS011;51452;47.698;19.050;2023-03-01T08:07:28;9.73;;;5.40;;
64936;SDS011;51452;47.698;19.050;2023-03-01T08:09:54;12.20;;;5.00;;
64936;SDS011;51452;47.698;19.050;2023-03-01T08:12:19;9.53;;;5.30;;
64936;SDS011;51452;47.698;19.050;2023-03-01T08:14:45;8.70;;;5.13;;
64936;SDS011;51452;47.698;19.050;2023-03-01T08:17:12;8.63;;;5.50;;
64936;SDS011;51452;47.698;19.050;2023-03-01T08:19:38;10.30;;;5.17;;
64936;SDS011;51452;47.698;19.050;2023-03-01T08:22:04;7.73;;;4.73;;
64936;SDS011;51452;47.698;19.050;2023-03-01T08:24:29;9.73;;;5.33;;
64936;SDS011;51452;47.698;19.050;2023-03-01T08:26:55;9.10;;;5.00;;
64936;SDS011;51452;47.698;19.050;2023-03-01T08:29:21;8.73;;;4.97;;
64936;SDS011;51452;47.698;19.050;2023-03-01T08:31:47;9.53;;;5.30;;
64936;SDS011;51452;47.698;19.050;2023-03-01T08:34:13;10.43;;;5.60;;
64936;SDS011;51452;47.698;19.050;2023-03-01T08:36:41;10.70;;;5.87;;
64936;SDS011;51452;47.698;19.050;2023-03-01T08:39:09;10.00;;;5.93;;
64936;SDS011;51452;47.698;19.050;2023-03-01T08:41:36;12.23;;;6.00;;
64936;SDS011;51452;47.698;19.050;2023-03-01T08:44:03;10.27;;;5.27;;
64936;SDS011;51452;47.698;19.050;2023-03-01T08:46:29;9.37;;;5.37;;
64936;SDS011;51452;47.698;19.050;2023-03-01T08:48:59;10.93;;;5.37;;
64936;SDS011;51452;47.698;19.050;2023-03-01T08:51:25;10.77;;;5.30;;
64936;SDS011;51452;47.698;19.050;2023-03-01T08:53:50;8.40;;;5.57;;
64936;SDS011;51452;47.698;19.050;2023-03-01T08:56:17;10.53;;;5.67;;
64936;SDS011;51452;47.698;19.050;2023-03-01T08:58:47;8.00;;;5.07;;
64936;SDS011;51452;47.698;19.050;2023-03-01T09:01:14;10.43;;;5.37;;
64936;SDS011;51452;47.698;19.050;2023-03-01T09:03:42;10.83;;;5.67;;
64936;SDS011;51452;47.698;19.050;2023-03-01T09:06:08;8.87;;;4.70;;
64936;SDS011;51452;47.698;19.050;2023-03-01T09:08:35;10.63;;;5.83;;
64936;SDS011;51452;47.698;19.050;2023-03-01T09:11:04;7.20;;;4.50;;
64936;SDS011;51452;47.698;19.050;2023-03-01T09:13:32;6.90;;;4.30;;
64936;SDS011;51452;47.698;19.050;2023-03-01T09:15:58;6.90;;;3.97;;
64936;SDS011;51452;47.698;19.050;2023-03-01T09:18:26;9.50;;;4.37;;
64936;SDS011;51452;47.698;19.050;2023-03-01T09:20:51;9.30;;;5.03;;
64936;SDS011;51452;47.698;19.050;2023-03-01T09:23:19;8.90;;;4.70;;
64936;SDS011;51452;47.698;19.050;2023-03-01T09:25:46;10.77;;;5.03;;
64936;SDS011;51452;47.698;19.050;2023-03-01T09:28:11;9.23;;;4.07;;
64936;SDS011;51452;47.698;19.050;2023-03-01T09:30:37;7.40;;;4.17;;
64936;SDS011;51452;47.698;19.050;2023-03-01T09:33:02;6.93;;;4.40;;
64936;SDS011;51452;47.698;19.050;2023-03-01T09:35:27;9.27;;;5.70;;
64936;SDS011;51452;47.698;19.050;2023-03-01T09:37:53;11.43;;;5.10;;
64936;SDS011;51452;47.698;19.050;2023-03-01T09:40:23;10.47;;;5.30;;
64936;SDS011;51452;47.698;19.050;2023-03-01T09:43:27;10.33;;;5.80;;
64936;SDS011;51452;47.698;19.050;2023-03-01T09:46:05;10.43;;;5.13;;
64936;SDS011;51452;47.698;19.050;2023-03-01T09:48:50;14.60;;;6.00;;
64936;SDS011;51452;47.698;19.050;2023-03-01T09:51:27;10.85;;;5.45;;
64936;SDS011;51452;47.698;19.050;2023-03-01T09:53:55;10.90;;;5.37;;
64936;SDS011;51452;47.698;19.050;2023-03-01T10:06:38;12.40;;;6.10;;
64936;SDS011;51452;47.698;19.050;2023-03-01T10:09:12;9.53;;;5.93;;
64936;SDS011;51452;47.698;19.050;2023-03-01T10:11:45;12.13;;;5.77;;
64936;SDS011;51452;47.698;19.050;2023-03-01T10:14:25;9.32;;;5.57;;
64936;SDS011;51452;47.698;19.050;2023-03-01T10:17:03;9.55;;;5.47;;
64936;SDS011;51452;47.698;19.050;2023-03-01T10:19:38;9.52;;;5.90;;
64936;SDS011;51452;47.698;19.050;2023-03-01T10:22:16;10.43;;;5.70;;
64936;SDS011;51452;47.698;19.050;2023-03-01T10:24:53;9.27;;;5.50;;
64936;SDS011;51452;47.698;19.050;2023-03-01T10:27:23;11.17;;;5.73;;
64936;SDS011;51452;47.698;19.050;2023-03-01T10:32:38;10.67;;;6.13;;
64936;SDS011;51452;47.698;19.050;2023-03-01T10:35:17;10.70;;;5.50;;
64936;SDS011;51452;47.698;19.050;2023-03-01T10:40:34;11.45;;;5.93;;
64936;SDS011;51452;47.698;19.050;2023-03-01T10:43:02;13.43;;;6.13;;
64936;SDS011;51452;47.698;19.050;2023-03-01T10:48:12;11.10;;;5.70;;
64936;SDS011;51452;47.698;19.050;2023-03-01T10:56:13;11.10;;;5.70;;
64936;SDS011;51452;47.698;19.050;2023-03-01T10:58:59;11.10;;;6.13;;
64936;SDS011;51452;47.698;19.050;2023-03-01T11:01:27;11.67;;;7.00;;
64936;SDS011;51452;47.698;19.050;2023-03-01T11:06:30;9.70;;;5.90;;
64936;SDS011;51452;47.698;19.050;2023-03-01T11:08:55;9.57;;;5.60;;
64936;SDS011;51452;47.698;19.050;2023-03-01T11:16:31;9.77;;;5.93;;
64936;SDS011;51452;47.698;19.050;2023-03-01T11:19:03;8.90;;;5.73;;
64936;SDS011;51452;47.698;19.050;2023-03-01T11:24:41;11.33;;;6.20;;
64936;SDS011;51452;47.698;19.050;2023-03-01T11:27:20;9.07;;;5.83;;
64936;SDS011;51452;47.698;19.050;2023-03-01T11:30:35;10.90;;;6.60;;
64936;SDS011;51452;47.698;19.050;2023-03-01T11:35:32;9.07;;;5.53;;
64936;SDS011;51452;47.698;19.050;2023-03-01T11:40:35;10.57;;;5.23;;
64936;SDS011;51452;47.698;19.050;2023-03-01T11:48:44;8.93;;;5.43;;
64936;SDS011;51452;47.698;19.050;2023-03-01T11:56:55;10.10;;;5.37;;
64936;SDS011;51452;47.698;19.050;2023-03-01T12:05:34;10.10;;;6.00;;
64936;SDS011;51452;47.698;19.050;2023-03-01T12:11:28;10.27;;;5.77;;
64936;SDS011;51452;47.698;19.050;2023-03-01T12:16:15;8.70;;;5.10;;
64936;SDS011;51452;47.698;19.050;2023-03-01T12:21:46;10.63;;;5.87;;
64936;SDS011;51452;47.698;19.050;2023-03-01T12:48:39;10.32;;;5.05;;
64936;SDS011;51452;47.698;19.050;2023-03-01T12:51:13;8.70;;;5.00;;
64936;SDS011;51452;47.698;19.050;2023-03-01T12:56:17;8.97;;;5.17;;
64936;SDS011;51452;47.698;19.050;2023-03-01T12:59:03;10.07;;;5.28;;
64936;SDS011;51452;47.698;19.050;2023-03-01T13:12:03;7.68;;;4.47;;
64936;SDS011;51452;47.698;19.050;2023-03-01T13:14:58;8.85;;;4.78;;
64936;SDS011;51452;47.698;19.050;2023-03-01T13:17:57;12.52;;;4.88;;
64936;SDS011;51452;47.698;19.050;2023-03-01T13:20:17;8.25;;;4.25;;
64936;SDS011;51452;47.698;19.050;2023-03-01T13:22:45;10.20;;;4.38;;
64936;SDS011;51452;47.698;19.050;2023-03-01T13:25:14;6.75;;;4.10;;
64936;SDS011;51452;47.698;19.050;2023-03-01T13:27:42;9.30;;;4.43;;
64936;SDS011;51452;47.698;19.050;2023-03-01T13:30:50;8.23;;;4.43;;
64936;SDS011;51452;47.698;19.050;2023-03-01T13:35:56;7.43;;;4.88;;
64936;SDS011;51452;47.698;19.050;2023-03-01T13:38:36;8.32;;;4.45;;
64936;SDS011;51452;47.698;19.050;2023-03-01T13:41:12;7.13;;;4.22;;
64936;SDS011;51452;47.698;19.050;2023-03-01T13:43:43;8.93;;;4.35;;
64936;SDS011;51452;47.698;19.050;2023-03-01T13:46:14;11.95;;;4.70;;
64936;SDS011;51452;47.698;19.050;2023-03-01T13:48:45;7.93;;;3.97;;
64936;SDS011;51452;47.698;19.050;2023-03-01T13:51:15;6.37;;;4.00;;
64936;SDS011;51452;47.698;19.050;2023-03-01T13:53:45;6.88;;;3.78;;
64936;SDS011;51452;47.698;19.050;2023-03-01T13:56:16;7.93;;;3.92;;
64936;SDS011;51452;47.698;19.050;2023-03-01T13:58:55;5.55;;;3.30;;
64936;SDS011;51452;47.698;19.050;2023-03-01T14:01:29;17.80;;;4.20;;
64936;SDS011;51452;47.698;19.050;2023-03-01T14:03:59;7.47;;;3.60;;
64936;SDS011;51452;47.698;19.050;2023-03-01T14:06:26;7.32;;;3.70;;
64936;SDS011;51452;47.698;19.050;2023-03-01T14:14:56;6.93;;;3.60;;
64936;SDS011;51452;47.698;19.050;2023-03-01T14:19:57;8.63;;;3.20;;
64936;SDS011;51452;47.698;19.050;2023-03-01T14:22:25;7.43;;;3.50;;
64936;SDS011;51452;47.698;19.050;2023-03-01T14:24:57;10.80;;;4.17;;
64936;SDS011;51452;47.698;19.050;2023-03-01T14:27:26;10.23;;;4.05;;
64936;SDS011;51452;47.698;19.050;2023-03-01T14:29:54;6.23;;;3.10;;
64936;SDS011;51452;47.698;19.050;2023-03-01T14:32:25;9.50;;;3.83;;
64936;SDS011;51452;47.698;19.050;2023-03-01T14:34:53;5.93;;;3.10;;
64936;SDS011;51452;47.698;19.050;2023-03-01T14:37:37;6.85;;;3.22;;
64936;SDS011;51452;47.698;19.050;2023-03-01T14:40:05;7.83;;;3.07;;
64936;SDS011;51452;47.698;19.050;2023-03-01T14:42:44;5.47;;;3.30;;
64936;SDS011;51452;47.698;19.050;2023-03-01T14:45:09;8.40;;;3.10;;
64936;SDS011;51452;47.698;19.050;2023-03-01T14:47:38;6.13;;;3.25;;
64936;SDS011;51452;47.698;19.050;2023-03-01T14:52:57;7.40;;;3.20;;
64936;SDS011;51452;47.698;19.050;2023-03-01T14:55:25;8.57;;;3.43;;
64936;SDS011;51452;47.698;19.050;2023-03-01T14:57:54;7.85;;;3.40;;
64936;SDS011;51452;47.698;19.050;2023-03-01T15:00:25;5.80;;;3.10;;
64936;SDS011;51452;47.698;19.050;2023-03-01T15:02:53;8.68;;;3.60;;
64936;SDS011;51452;47.698;19.050;2023-03-01T15:05:31;5.70;;;3.43;;
64936;SDS011;51452;47.698;19.050;2023-03-01T15:07:58;11.30;;;3.80;;
64936;SDS011;51452;47.698;19.050;2023-03-01T15:10:27;7.33;;;3.60;;
64936;SDS011;51452;47.698;19.050;2023-03-01T15:12:54;9.33;;;3.97;;
64936;SDS011;51452;47.698;19.050;2023-03-01T15:15:33;6.73;;;3.20;;
64936;SDS011;51452;47.698;19.050;2023-03-01T15:18:13;9.83;;;3.30;;
64936;SDS011;51452;47.698;19.050;2023-03-01T15:20:51;7.53;;;4.07;;
64936;SDS011;51452;47.698;19.050;2023-03-01T15:23:22;7.90;;;3.60;;
64936;SDS011;51452;47.698;19.050;2023-03-01T15:25:50;7.20;;;3.63;;
64936;SDS011;51452;47.698;19.050;2023-03-01T15:28:22;8.27;;;3.97;;
64936;SDS011;51452;47.698;19.050;2023-03-01T15:31:33;13.13;;;3.93;;
64936;SDS011;51452;47.698;19.050;2023-03-01T15:33:42;8.97;;;4.20;;
64936;SDS011;51452;47.698;19.050;2023-03-01T15:45:10;9.07;;;4.57;;
64936;SDS011;51452;47.698;19.050;2023-03-01T15:47:48;9.80;;;4.20;;
64936;SDS011;51452;47.698;19.050;2023-03-01T15:50:29;5.95;;;3.63;;
64936;SDS011;51452;47.698;19.050;2023-03-01T15:52:58;7.73;;;3.90;;
64936;SDS011;51452;47.698;19.050;2023-03-01T15:55:28;11.37;;;3.67;;
64936;SDS011;51452;47.698;19.050;2023-03-01T15:57:59;6.40;;;3.33;;
64936;SDS011;51452;47.698;19.050;2023-03-01T16:00:28;10.17;;;3.60;;
64936;SDS011;51452;47.698;19.050;2023-03-01T16:02:54;8.27;;;3.50;;
64936;SDS011;51452;47.698;19.050;2023-03-01T16:05:21;8.50;;;3.50;;
64936;SDS011;51452;47.698;19.050;2023-03-01T16:07:48;8.33;;;3.57;;
64936;SDS011;51452;47.698;19.050;2023-03-01T16:10:14;8.80;;;3.43;;
64936;SDS011;51452;47.698;19.050;2023-03-01T16:12:40;6.43;;;3.40;;
64936;SDS011;51452;47.698;19.050;2023-03-01T16:15:39;6.83;;;3.30;;
64936;SDS011;51452;47.698;19.050;2023-03-01T16:17:59;5.47;;;2.73;;
64936;SDS011;51452;47.698;19.050;2023-03-01T16:20:24;6.90;;;3.20;;
64936;SDS011;51452;47.698;19.050;2023-03-01T16:22:51;8.07;;;4.07;;
64936;SDS011;51452;47.698;19.050;2023-03-01T16:25:17;8.00;;;2.87;;
64936;SDS011;51452;47.698;19.050;2023-03-01T16:27:46;11.23;;;3.80;;
64936;SDS011;51452;47.698;19.050;2023-03-01T16:30:13;21.20;;;4.40;;
64936;SDS011;51452;47.698;19.050;2023-03-01T16:32:41;9.63;;;3.73;;
64936;SDS011;51452;47.698;19.050;2023-03-01T16:35:08;12.63;;;3.33;;
64936;SDS011;51452;47.698;19.050;2023-03-01T16:37:35;6.13;;;3.00;;
64936;SDS011;51452;47.698;19.050;2023-03-01T16:40:02;6.70;;;3.30;;
64936;SDS011;51452;47.698;19.050;2023-03-01T16:42:35;7.97;;;3.20;;
64936;SDS011;51452;47.698;19.050;2023-03-01T16:45:01;5.17;;;2.93;;
64936;SDS011;51452;47.698;19.050;2023-03-01T16:47:28;12.37;;;4.13;;
64936;SDS011;51452;47.698;19.050;2023-03-01T16:49:54;14.30;;;3.80;;
64936;SDS011;51452;47.698;19.050;2023-03-01T16:52:20;8.40;;;4.03;;